Time;durP1;ratioP1;P1;durP2;ratioP2;P2;SDS_P1;SDS_P2;PMS_P1;PMS_P2;Temp;Humidity;BMP_temperature;BMP_pressure;BME280_temperature;BME280_humidity;BME280_pressure;Samples;Min_cycle;Max_cycle;Signal;HPM_P1;HPM_P2
2020/12/19 00:00:27;;;;;;;;;;;;;;;2.19;89.25;100421.62;1826016;77;21238;-66
2020/12/19 00:02:56;;;;;;;54.58;31.23;;;;;;;2.21;89.28;100419.88;1829563;77;20183;-65
2020/12/19 00:05:25;;;;;;;51.15;30.30;;;;;;;2.22;89.27;100417.76;1827124;77;21036;-66
2020/12/19 00:07:53;;;;;;;42.95;26.75;;;;;;;2.24;89.27;100410.86;1821228;77;21245;-65
2020/12/19 00:10:22;;;;;;;40.88;24.50;;;;;;;2.24;89.21;100415.60;1831077;77;21249;-65
2020/12/19 00:12:50;;;;;;;35.68;22.55;;;;;;;2.23;89.18;100408.72;1836931;77;21319;-66
2020/12/19 00:15:19;;;;;;;39.75;23.40;;;;;;;2.27;89.24;100416.03;1818384;77;21135;-66
2020/12/19 00:17:49;;;;;;;38.25;23.12;;;;;;;2.29;89.26;100410.42;1836557;77;21008;-65
2020/12/19 00:20:19;;;;;;;41.80;23.10;;;;;;;2.32;89.30;100411.70;1810830;77;21103;-65
2020/12/19 00:22:47;;;;;;;40.55;23.80;;;;;;;2.35;89.29;100407.85;1817768;77;21079;-65
2020/12/19 00:25:15;;;;;;;40.08;24.12;;;;;;;2.37;89.28;100404.81;1817440;77;21194;-65
2020/12/19 00:27:45;;;;;;;43.33;24.18;;;;;;;2.41;89.28;100397.95;1822100;76;21332;-65
2020/12/19 00:30:14;;;;;;;40.48;22.75;;;;;;;2.46;89.37;100403.52;1818279;77;21128;-65
2020/12/19 00:32:43;;;;;;;40.67;24.85;;;;;;;2.50;89.34;100404.80;1817216;77;21087;-65
2020/12/19 00:35:14;;;;;;;43.33;24.47;;;;;;;2.51;89.28;100403.92;1838386;77;20993;-66
2020/12/19 00:37:45;;;;;;;41.25;22.58;;;;;;;2.50;89.22;100394.48;1825230;77;21692;-65
2020/12/19 00:40:13;;;;;;;35.85;22.62;;;;;;;2.49;89.23;100400.48;1812600;77;21279;-65
2020/12/19 00:42:41;;;;;;;37.75;20.37;;;;;;;2.45;89.21;100401.78;1816151;77;21084;-65
2020/12/19 00:45:09;;;;;;;38.13;24.20;;;;;;;2.42;89.17;100399.22;1818476;77;21566;-65
2020/12/19 00:47:38;;;;;;;41.88;23.47;;;;;;;2.40;89.23;100393.20;1813480;77;21198;-66
2020/12/19 00:50:07;;;;;;;37.20;23.60;;;;;;;2.39;89.22;100392.80;1828053;77;21157;-66
2020/12/19 00:52:36;;;;;;;32.50;20.82;;;;;;;2.37;89.19;100388.50;1836279;77;21171;-66
2020/12/19 00:55:05;;;;;;;37.35;23.00;;;;;;;2.33;89.16;100391.53;1813499;77;21233;-65
2020/12/19 00:57:34;;;;;;;33.48;22.30;;;;;;;2.32;89.27;100391.08;1820917;77;21128;-65
2020/12/19 01:00:07;;;;;;;37.03;23.18;;;;;;;2.31;89.28;100384.22;1809304;77;21190;-65
2020/12/19 01:02:40;;;;;;;36.33;22.30;;;;;;;2.29;89.29;100389.80;1841202;77;21262;-66
2020/12/19 01:05:09;;;;;;;42.08;23.02;;;;;;;2.27;89.31;100385.52;1823932;77;21194;-66
2020/12/19 01:07:40;;;;;;;40.60;23.60;;;;;;;2.24;89.27;100377.36;1816159;77;21084;-65
2020/12/19 01:10:11;;;;;;;37.88;24.35;;;;;;;2.22;89.30;100375.23;1810823;78;21596;-66
2020/12/19 01:12:39;;;;;;;35.25;23.00;;;;;;;2.20;89.33;100373.09;1797810;77;20911;-66
2020/12/19 01:15:08;;;;;;;36.98;22.85;;;;;;;2.17;89.31;100367.95;1818450;77;21129;-65
2020/12/19 01:17:39;;;;;;;37.38;24.12;;;;;;;2.15;89.34;100364.07;1810964;77;21197;-66
2020/12/19 01:20:07;;;;;;;33.75;21.97;;;;;;;2.13;89.34;100359.37;1815707;77;21186;-66
2020/12/19 01:22:36;;;;;;;35.20;24.15;;;;;;;2.12;89.40;100363.23;1826760;77;21107;-66
2020/12/19 01:25:04;;;;;;;37.78;21.90;;;;;;;2.12;89.50;100364.52;1840245;77;21135;-66
2020/12/19 01:27:32;;;;;;;34.70;23.20;;;;;;;2.13;89.57;100362.36;1824696;77;21180;-65
2020/12/19 01:30:00;;;;;;;37.08;22.82;;;;;;;2.14;89.58;100370.53;1816151;77;21220;-65
2020/12/19 01:32:28;;;;;;;35.55;22.48;;;;;;;2.14;89.50;100360.23;1817434;77;21127;-65
2020/12/19 01:34:58;;;;;;;33.18;21.20;;;;;;;2.11;89.43;100353.80;1815027;76;21051;-65
2020/12/19 01:37:28;;;;;;;36.93;23.85;;;;;;;2.10;89.46;100354.23;1817596;77;21278;-65
2020/12/19 01:39:56;;;;;;;38.15;23.70;;;;;;;2.08;89.43;100358.97;1817423;76;21194;-65
2020/12/19 01:42:24;;;;;;;36.35;22.25;;;;;;;2.06;89.41;100348.66;1818898;77;21131;-65
2020/12/19 01:44:52;;;;;;;;;;;;;;;2.05;89.41;100342.23;1841427;77;21229;-65
2020/12/19 01:47:22;;;;;;;35.20;21.73;;;;;;;2.01;89.45;100344.78;1816602;77;20223;-66
2020/12/19 01:50:11;;;;;;;40.70;23.57;;;;;;;1.99;89.47;100345.25;1822219;76;21195;-66
2020/12/19 01:52:41;;;;;;;43.52;23.30;;;;;;;2.01;89.52;100342.21;1783290;78;21284;-66
2020/12/19 01:55:09;;;;;;;39.75;24.67;;;;;;;2.03;89.58;100336.22;1791791;77;21060;-65
2020/12/19 01:57:40;;;;;;;38.25;23.15;;;;;;;2.04;89.59;100335.34;1786321;78;21132;-65
2020/12/19 02:00:08;;;;;;;34.65;21.25;;;;;;;2.03;89.54;100325.91;1815893;76;21123;-66
2020/12/19 02:02:35;;;;;;;35.98;22.17;;;;;;;2.03;89.64;100328.48;1829765;76;21164;-66
2020/12/19 02:05:04;;;;;;;36.55;22.85;;;;;;;2.05;89.72;100322.91;1807178;76;23099;-66
2020/12/19 02:07:32;;;;;;;37.38;23.20;;;;;;;2.06;89.69;100331.05;1822191;76;21122;-65
2020/12/19 02:10:01;;;;;;;36.17;22.70;;;;;;;2.07;89.74;100326.31;1816094;76;21237;-66
2020/12/19 02:12:29;;;;;;;39.10;22.27;;;;;;;2.08;89.70;100324.19;1826310;76;21589;-66
2020/12/19 02:14:58;;;;;;;35.20;21.68;;;;;;;2.08;89.69;100324.19;1829278;76;21198;-65
2020/12/19 02:17:26;;;;;;;34.83;21.33;;;;;;;2.08;89.70;100329.34;1827376;76;21353;-65
2020/12/19 02:19:54;;;;;;;34.50;21.23;;;;;;;2.09;89.72;100323.31;1824834;76;21211;-66
2020/12/19 02:22:22;;;;;;;32.65;21.20;;;;;;;2.10;89.72;100322.44;1829613;77;21202;-66
2020/12/19 02:24:52;;;;;;;35.68;22.77;;;;;;;2.09;89.70;100320.74;1828135;77;21107;-65
2020/12/19 02:27:23;;;;;;;29.85;19.40;;;;;;;2.09;89.67;100324.60;1823295;76;21741;-66
2020/12/19 02:29:52;;;;;;;36.70;21.35;;;;;;;2.09;89.68;100328.47;1823370;77;21546;-65
2020/12/19 02:32:20;;;;;;;35.23;22.82;;;;;;;2.07;89.70;100325.03;1827148;77;21136;-65
2020/12/19 02:34:48;;;;;;;33.88;21.07;;;;;;;2.09;89.71;100328.47;1835009;76;21286;-65
2020/12/19 02:37:16;;;;;;;38.25;20.60;;;;;;;2.10;89.70;100330.17;1825867;76;21268;-65
2020/12/19 02:39:43;;;;;;;31.75;20.82;;;;;;;2.11;89.71;100330.62;1847976;75;21135;-65
2020/12/19 02:42:14;;;;;;;33.75;21.82;;;;;;;2.11;89.69;100331.91;1828086;76;21184;-65
2020/12/19 02:44:44;;;;;;;36.53;22.07;;;;;;;2.11;89.65;100330.18;1852056;76;20997;-65
2020/12/19 02:47:12;;;;;;;36.95;22.95;;;;;;;2.11;89.63;100328.05;1822662;76;21595;-66
2020/12/19 02:49:43;;;;;;;34.90;22.32;;;;;;;2.09;89.59;100326.74;1829652;76;21187;-65
2020/12/19 02:52:15;;;;;;;33.88;21.27;;;;;;;2.09;89.60;100323.31;1823262;76;21251;-65
2020/12/19 02:54:49;;;;;;;35.48;22.58;;;;;;;2.06;89.58;100324.18;1831803;77;21441;-66
2020/12/19 02:57:17;;;;;;;34.80;21.52;;;;;;;2.05;89.61;100316.03;1838091;76;21201;-65
2020/12/19 02:59:45;;;;;;;36.68;21.52;;;;;;;2.06;89.66;100311.73;1842347;76;21239;-65
2020/12/19 03:02:13;;;;;;;36.65;22.90;;;;;;;2.06;89.62;100318.17;1827046;76;21077;-65
2020/12/19 03:04:44;;;;;;;32.50;21.82;;;;;;;2.05;89.62;100324.20;1813932;77;21047;-65
2020/12/19 03:07:13;;;;;;;32.63;21.10;;;;;;;2.05;89.63;100319.05;1823636;76;21302;-65
2020/12/19 03:09:41;;;;;;;34.00;21.42;;;;;;;2.06;89.65;100320.75;1822785;77;20984;-65
2020/12/19 03:12:10;;;;;;;32.35;22.20;;;;;;;2.05;89.59;100319.05;1833089;76;21105;-65
2020/12/19 03:14:38;;;;;;;30.48;20.68;;;;;;;2.04;89.65;100325.05;1820909;76;21134;-65
2020/12/19 03:17:07;;;;;;;37.78;22.60;;;;;;;2.05;89.63;100320.34;1821802;76;21242;-65
2020/12/19 03:19:34;;;;;;;32.50;20.57;;;;;;;2.06;89.64;100324.62;1815694;76;21187;-66
2020/12/19 03:22:02;;;;;;;;;;;;;;;2.04;89.63;100319.89;1819796;77;21205;-65
2020/12/19 03:24:30;;;;;;;35.08;22.25;;;;;;;2.03;89.59;100320.77;1833776;76;20375;-66
2020/12/19 03:26:58;;;;;;;36.80;22.52;;;;;;;2.00;89.58;100316.48;1824228;76;21147;-66
2020/12/19 03:29:26;;;;;;;39.33;23.73;;;;;;;1.97;89.58;100317.34;1832764;76;21095;-65
2020/12/19 03:31:55;;;;;;;37.55;24.82;;;;;;;1.97;89.60;100319.06;1821701;76;21299;-66
2020/12/19 03:34:24;;;;;;;39.58;22.52;;;;;;;1.94;89.55;100312.20;1819877;75;21143;-66
2020/12/19 03:36:52;;;;;;;36.08;23.15;;;;;;;1.93;89.49;100301.89;1815187;77;21203;-65
2020/12/19 03:39:20;;;;;;;40.23;23.42;;;;;;;1.90;89.50;100307.91;1826655;76;21098;-66
2020/12/19 03:41:48;;;;;;;37.50;23.50;;;;;;;1.87;89.50;100304.05;1841571;76;21319;-65
2020/12/19 03:44:15;;;;;;;38.95;22.25;;;;;;;1.86;89.49;100313.94;1825481;76;21179;-63
2020/12/19 03:46:44;;;;;;;40.80;24.10;;;;;;;1.84;89.52;100309.20;1835584;76;20990;-64
2020/12/19 03:49:12;;;;;;;37.95;23.47;;;;;;;1.82;89.47;100304.52;1828850;75;21158;-63
2020/12/19 03:51:41;;;;;;;36.50;21.97;;;;;;;1.80;89.47;100303.66;1824518;76;21125;-63
2020/12/19 03:54:09;;;;;;;39.40;23.50;;;;;;;1.77;89.48;100301.09;1826182;76;21246;-63
2020/12/19 03:56:42;;;;;;;32.75;22.20;;;;;;;1.74;89.52;100298.52;1831154;76;21184;-63
2020/12/19 03:59:10;;;;;;;35.30;23.70;;;;;;;1.72;89.50;100292.52;1826147;77;21142;-63
2020/12/19 04:01:39;;;;;;;39.03;23.77;;;;;;;1.67;89.45;100298.09;1821760;76;21143;-63
2020/12/19 04:04:07;;;;;;;38.67;24.35;;;;;;;1.62;89.42;100301.09;1809841;76;21155;-63
2020/12/19 04:06:36;;;;;;;38.65;25.27;;;;;;;1.58;89.44;100296.83;1828467;76;21152;-63
2020/12/19 04:09:05;;;;;;;42.55;25.48;;;;;;;1.54;89.41;100303.67;1831132;77;21226;-63
2020/12/19 04:11:32;;;;;;;37.55;24.90;;;;;;;1.49;89.45;100295.98;1817967;76;21142;-63
2020/12/19 04:14:00;;;;;;;41.10;26.20;;;;;;;1.44;89.41;100295.13;1832718;77;21165;-62
2020/12/19 04:16:30;;;;;;;43.90;26.20;;;;;;;1.38;89.41;100295.13;1815509;76;21180;-62
2020/12/19 04:18:59;;;;;;;45.90;26.55;;;;;;;1.34;89.41;100294.69;1820330;77;21087;-63
2020/12/19 04:21:28;;;;;;;40.95;26.15;;;;;;;1.27;89.38;100296.86;1808590;76;21353;-63
2020/12/19 04:23:56;;;;;;;44.75;25.77;;;;;;;1.21;89.33;100299.44;1829221;77;21285;-63
2020/12/19 04:26:26;;;;;;;38.95;24.50;;;;;;;1.15;89.35;100295.55;1821969;77;21237;-63
2020/12/19 04:28:55;;;;;;;44.10;26.25;;;;;;;1.07;89.35;100295.14;1835111;76;21122;-63
2020/12/19 04:31:23;;;;;;;42.55;25.48;;;;;;;1.01;89.36;100302.85;1826625;77;21601;-63
2020/12/19 04:33:53;;;;;;;44.77;26.93;;;;;;;0.96;89.35;100299.41;1842983;76;21171;-63
2020/12/19 04:36:23;;;;;;;44.70;27.27;;;;;;;0.90;89.34;100298.13;1829133;76;21187;-63
2020/12/19 04:38:51;;;;;;;41.30;25.90;;;;;;;0.84;89.37;100300.27;1821610;77;21184;-63
2020/12/19 04:41:20;;;;;;;40.58;26.07;;;;;;;0.80;89.40;100302.81;1820618;76;21167;-63
2020/12/19 04:43:53;;;;;;;42.65;24.82;;;;;;;0.76;89.50;100306.25;1819887;77;21143;-63
2020/12/19 04:46:22;;;;;;;47.08;25.20;;;;;;;0.74;89.50;100305.37;1825372;76;21239;-63
2020/12/19 04:48:51;;;;;;;40.90;25.60;;;;;;;0.72;89.51;100307.08;1835479;76;21662;-63
2020/12/19 04:51:20;;;;;;;38.75;24.75;;;;;;;0.68;89.53;100305.37;1822417;76;21148;-62
2020/12/19 04:53:48;;;;;;;41.40;25.05;;;;;;;0.62;89.53;100307.06;1822891;77;21080;-63
2020/12/19 04:56:18;;;;;;;41.50;24.65;;;;;;;0.59;89.51;100294.21;1840881;76;21104;-63
2020/12/19 04:58:46;;;;;;;46.15;25.52;;;;;;;0.55;89.49;100300.18;1819391;76;21202;-63
2020/12/19 05:01:15;;;;;;;42.27;26.33;;;;;;;0.50;89.48;100301.87;1811503;75;21181;-63
2020/12/19 05:03:50;;;;;;;42.67;26.23;;;;;;;0.47;89.56;100304.44;1819964;76;21577;-64
2020/12/19 05:06:24;;;;;;;43.73;27.00;;;;;;;0.47;89.55;100307.00;1825169;76;21111;-65
2020/12/19 05:08:58;;;;;;;40.10;24.90;;;;;;;0.43;89.51;100310.44;1834059;76;21120;-65
2020/12/19 05:11:27;;;;;;;49.93;27.85;;;;;;;0.37;89.49;100306.56;1822870;77;22409;-65
2020/12/19 05:13:55;;;;;;;43.90;25.70;;;;;;;0.32;89.49;100308.25;1829671;77;21166;-65
2020/12/19 05:16:23;;;;;;;40.92;25.45;;;;;;;0.31;89.58;100310.37;1836955;76;21037;-65
2020/12/19 05:18:51;;;;;;;45.52;25.85;;;;;;;0.27;89.54;100313.79;1823324;76;21321;-65
2020/12/19 05:21:19;;;;;;;;;;;;;;;0.22;89.55;100318.90;1837073;76;21622;-65
2020/12/19 05:23:49;;;;;;;44.88;24.65;;;;;;;0.20;89.55;100329.18;1832831;76;21128;-65
2020/12/19 05:26:20;;;;;;;40.23;24.67;;;;;;;0.15;89.55;100330.01;1826245;77;21158;-65
2020/12/19 05:28:48;;;;;;;41.05;24.80;;;;;;;0.12;89.60;100330.85;1817535;77;21665;-65
2020/12/19 05:31:18;;;;;;;48.13;27.02;;;;;;;0.10;89.58;100317.14;1811154;76;21119;-65
2020/12/19 05:33:47;;;;;;;37.70;24.15;;;;;;;0.07;89.59;100323.98;1827976;75;21207;-65
2020/12/19 05:36:24;;;;;;;45.08;26.85;;;;;;;0.04;89.55;100319.68;1830678;76;21268;-65
2020/12/19 05:39:00;;;;;;;44.65;24.55;;;;;;;0.01;89.63;100315.82;1819046;76;21201;-65
2020/12/19 05:41:28;;;;;;;38.25;23.83;;;;;;;-0.01;89.68;100319.64;1842347;76;21693;-65
2020/12/19 05:43:59;;;;;;;;;;;;;;;-0.03;89.61;100320.48;1833278;76;21152;-66
2020/12/19 05:46:43;;;;;;;40.03;23.92;;;;;;;-0.06;89.60;100317.91;1828426;77;20250;-65
2020/12/19 05:49:13;;;;;;;46.55;26.33;;;;;;;-0.10;89.59;100317.04;1808570;77;21242;-65
2020/12/19 05:51:42;;;;;;;39.73;23.38;;;;;;;-0.15;89.61;100325.56;1822380;76;21155;-65
2020/12/19 05:54:14;;;;;;;41.25;25.27;;;;;;;-0.15;89.77;100330.70;1825622;77;21227;-65
2020/12/19 05:59:23;;;;;;;43.20;25.27;;;;;;;-0.15;89.75;100321.28;1833131;76;22442;-65
2020/12/19 06:01:51;;;;;;;42.00;24.47;;;;;;;-0.17;89.79;100334.95;1813790;78;20988;-65
2020/12/19 06:04:19;;;;;;;41.00;24.40;;;;;;;-0.18;89.84;100330.68;1814644;78;21400;-64
2020/12/19 06:06:48;;;;;;;38.15;23.47;;;;;;;-0.18;89.80;100325.55;1815752;78;20957;-64
2020/12/19 06:09:17;;;;;;;44.88;25.08;;;;;;;-0.22;89.81;100322.11;1801174;77;21194;-64
2020/12/19 06:11:58;;;;;;;39.78;23.85;;;;;;;-0.23;89.80;100320.38;1796490;78;21068;-64
2020/12/19 06:14:30;;;;;;;44.18;25.17;;;;;;;-0.24;89.89;100327.22;1800920;77;21656;-65
2020/12/19 06:17:03;;;;;;;40.25;25.20;;;;;;;-0.21;89.86;100330.67;1803372;78;21198;-65
2020/12/19 06:19:33;;;;;;;44.38;25.12;;;;;;;-0.25;89.84;100325.52;1738858;81;21033;-64
2020/12/19 06:22:01;;;;;;;41.15;25.62;;;;;;;-0.26;89.84;100326.34;1750070;81;21029;-64
2020/12/19 06:24:47;;;;;;;41.70;26.15;;;;;;;-0.28;89.77;100320.37;1746761;80;21004;-64
2020/12/19 06:27:28;;;;;;;43.48;25.48;;;;;;;-0.30;89.77;100327.19;1736222;80;20986;-65
2020/12/19 06:29:58;;;;;;;39.10;23.80;;;;;;;-0.31;89.79;100325.48;1752148;80;22148;-65
2020/12/19 06:32:29;;;;;;;36.83;22.35;;;;;;;-0.34;89.74;100327.15;1754220;81;21043;-66
2020/12/19 06:35:14;;;;;;;41.28;22.65;;;;;;;-0.36;89.78;100328.44;1745939;80;21594;-65
2020/12/19 06:37:48;;;;;;;38.30;23.70;;;;;;;-0.38;89.74;100328.84;1753370;80;21070;-65
2020/12/19 06:40:20;;;;;;;46.20;25.00;;;;;;;-0.39;89.79;100322.41;1742117;81;21131;-65
2020/12/19 06:42:50;;;;;;;41.55;24.12;;;;;;;-0.41;89.76;100326.26;1749479;79;21237;-65
2020/12/19 06:45:31;;;;;;;36.50;23.12;;;;;;;-0.41;89.84;100330.11;1757408;81;21134;-65
2020/12/19 06:47:59;;;;;;;40.95;23.77;;;;;;;-0.41;89.87;100332.67;1739436;80;21553;-66
2020/12/19 06:50:56;;;;;;;42.10;23.92;;;;;;;-0.43;89.87;100331.80;1752908;80;21207;-65
2020/12/19 06:53:25;;;;;;;38.00;23.22;;;;;;;-0.43;89.87;100331.80;1746265;81;21188;-65
2020/12/19 06:55:54;;;;;;;41.92;24.80;;;;;;;-0.47;89.82;100332.20;1747793;80;21178;-65
2020/12/19 06:58:36;;;;;;;42.95;24.75;;;;;;;-0.48;89.83;100327.05;1737829;81;21096;-65
2020/12/19 07:01:28;;;;;;;40.30;23.47;;;;;;;-0.48;89.86;100332.18;1735869;81;22005;-65
2020/12/19 07:03:56;;;;;;;41.18;24.00;;;;;;;-0.47;89.85;100331.35;1734294;81;21147;-65
2020/12/19 07:06:24;;;;;;;43.30;24.80;;;;;;;-0.49;89.82;100338.17;1733086;81;21179;-65
2020/12/19 07:08:52;;;;;;;42.10;25.00;;;;;;;-0.52;89.82;100327.89;1733521;81;21201;-65
2020/12/19 07:11:39;;;;;;;55.85;29.18;;;;;;;-0.52;89.83;100335.59;1739008;81;21069;-64
2020/12/19 07:14:15;;;;;;;40.40;23.80;;;;;;;-0.51;89.85;100337.29;1737328;81;21610;-64
2020/12/19 07:16:51;;;;;;;43.63;26.87;;;;;;;-0.54;89.82;100336.84;1735603;81;21202;-65
2020/12/19 07:22:10;;;;;;;44.95;27.20;;;;;;;-0.53;89.82;100336.02;1833787;76;24549;-65
2020/12/19 07:24:41;;;;;;;44.73;26.87;;;;;;;-0.55;89.81;100340.69;1810920;77;21644;-64
2020/12/19 07:27:09;;;;;;;48.23;27.20;;;;;;;-0.53;89.84;100342.86;1808729;78;21091;-64
2020/12/19 07:29:38;;;;;;;45.90;27.50;;;;;;;-0.53;89.84;100346.70;1808474;78;21544;-64
2020/12/19 07:32:06;;;;;;;41.35;26.17;;;;;;;-0.53;89.86;100337.73;1800111;78;20980;-64
2020/12/19 07:34:35;;;;;;;47.70;27.22;;;;;;;-0.52;89.82;100343.28;1800346;78;21675;-64
2020/12/19 07:37:04;;;;;;;43.35;26.15;;;;;;;-0.52;89.80;100341.56;1813791;78;20997;-64
2020/12/19 07:39:36;;;;;;;44.13;25.72;;;;;;;-0.52;89.79;100343.28;1797871;77;21320;-64
2020/12/19 07:42:16;;;;;;;42.25;26.27;;;;;;;-0.47;89.76;100346.75;1831719;77;23341;-65
2020/12/19 07:44:48;;;;;;;46.35;26.42;;;;;;;-0.50;89.82;100344.16;1805125;78;21201;-64
2020/12/19 07:47:21;;;;;;;41.40;27.05;;;;;;;-0.48;89.80;100345.01;1799514;78;21242;-65
2020/12/19 07:49:52;;;;;;;46.23;26.40;;;;;;;-0.46;89.92;100348.45;1793540;78;21033;-65
2020/12/19 07:52:32;;;;;;;46.90;27.98;;;;;;;-0.40;89.84;100342.08;1867851;74;22803;-65
2020/12/19 07:55:04;;;;;;;50.88;29.50;;;;;;;-0.42;89.83;100342.52;1834203;76;21653;-64
2020/12/19 07:57:37;;;;;;;45.80;28.45;;;;;;;-0.39;89.83;100351.52;1833692;75;21864;-64
2020/12/19 08:00:09;;;;;;;45.28;27.90;;;;;;;-0.35;89.88;100349.81;1842014;75;21697;-64
2020/12/19 08:02:41;;;;;;;47.60;28.75;;;;;;;-0.33;89.98;100350.27;1842729;75;21183;-64
2020/12/19 08:05:11;;;;;;;51.75;28.52;;;;;;;-0.30;90.07;100350.28;1786419;78;21021;-64
2020/12/19 08:07:42;;;;;;;44.33;29.50;;;;;;;-0.23;90.10;100349.45;1785353;78;20997;-65
2020/12/19 08:10:19;;;;;;;42.20;28.07;;;;;;;-0.16;90.10;100352.09;1805966;77;21376;-65
2020/12/19 08:12:50;;;;;;;54.75;35.30;;;;;;;-0.10;90.10;100355.55;1803927;77;21602;-64
2020/12/19 08:15:27;;;;;;;66.05;47.15;;;;;;;-0.02;90.09;100345.33;1806440;77;20956;-65
2020/12/19 08:18:06;;;;;;;77.08;54.88;;;;;;;0.05;90.12;100352.20;1796306;77;21241;-65
2020/12/19 08:20:51;;;;;;;82.35;59.38;;;;;;;0.11;90.14;100353.94;1813136;77;21133;-65
2020/12/19 08:23:17;;;;;;;58.52;38.10;;;;;;;0.18;90.16;100355.27;1803615;78;21166;-65
2020/12/19 08:28:35;;;;;;;38.50;26.48;;;;;;;0.38;90.12;100342.95;1835433;77;23422;-66
2020/12/19 08:31:09;;;;;;;38.38;23.50;;;;;;;0.38;90.08;100353.22;1806883;78;21020;-66
2020/12/19 08:33:44;;;;;;;36.48;22.37;;;;;;;0.45;90.14;100340.85;1807792;78;21464;-65
2020/12/19 08:36:14;;;;;;;42.23;24.57;;;;;;;0.52;90.12;100342.57;1749839;80;21030;-65
2020/12/19 08:38:42;;;;;;;50.63;29.90;;;;;;;0.59;90.12;100340.47;1777513;80;21045;-65
2020/12/19 08:41:19;;;;;;;44.58;26.68;;;;;;;0.65;90.11;100341.77;1754584;81;21021;-65
2020/12/19 08:43:47;;;;;;;51.92;30.23;;;;;;;0.72;90.01;100345.63;1752679;80;21721;-65
2020/12/19 08:46:15;;;;;;;52.88;29.27;;;;;;;0.79;90.02;100352.09;1753412;81;21211;-65
2020/12/19 08:48:47;;;;;;;54.25;31.52;;;;;;;0.85;89.99;100344.81;1749459;81;21073;-65
2020/12/19 08:51:15;;;;;;;52.20;30.08;;;;;;;0.82;89.83;100349.52;1754926;81;21021;-65
2020/12/19 08:53:44;;;;;;;56.05;30.15;;;;;;;0.79;89.84;100344.81;1753145;81;21191;-66
2020/12/19 08:56:28;;;;;;;;;;;;;;;;;;;;;
2020/12/19 08:59:00;;;;;;;49.27;30.25;;;;;;;0.74;89.77;100343.94;1835639;75;24910;-65
2020/12/19 09:01:35;;;;;;;54.30;31.05;;;;;;;0.68;89.84;100346.50;1848261;76;21159;-66
2020/12/19 09:07:00;;;;;;;54.80;30.55;;;;;;;0.71;89.89;100343.93;1766711;79;28038;-65
2020/12/19 09:09:30;;;;;;;51.37;29.75;;;;;;;0.66;89.95;100346.04;1748562;81;21136;-66
2020/12/19 09:12:12;;;;;;;47.30;27.93;;;;;;;0.72;89.98;100341.78;1711619;82;21199;-65
2020/12/19 09:14:40;;;;;;;43.68;25.37;;;;;;;0.76;89.97;100337.09;1691715;82;21059;-65
2020/12/19 09:17:25;;;;;;;;;;;;;;;;;;;;;
2020/12/19 09:20:05;;;;;;;43.20;27.30;;;;;;;0.87;89.91;100339.27;1874417;75;26269;-65
2020/12/19 09:22:35;;;;;;;46.85;26.02;;;;;;;0.86;89.90;100333.67;1854936;77;21008;-65
2020/12/19 09:25:04;;;;;;;49.45;28.47;;;;;;;0.91;89.90;100329.40;1848395;76;22345;-65
2020/12/19 09:27:32;;;;;;;51.18;29.48;;;;;;;0.95;89.89;100339.25;1844939;76;21044;-65
2020/12/19 09:30:00;;;;;;;48.10;28.67;;;;;;;0.99;89.86;100334.56;1847144;77;21077;-65
2020/12/19 09:32:36;;;;;;;44.90;27.02;;;;;;;1.01;89.88;100337.57;1848764;77;21024;-65
2020/12/19 09:35:06;;;;;;;45.43;27.93;;;;;;;1.03;89.92;100337.12;1846236;77;21066;-65
2020/12/19 09:37:51;;;;;;;52.15;28.77;;;;;;;1.16;90.00;100334.58;1830827;77;21998;-65
2020/12/19 09:40:19;;;;;;;47.35;27.10;;;;;;;1.17;90.04;100326.84;1817658;78;21542;-66
2020/12/19 09:42:47;;;;;;;48.15;28.83;;;;;;;1.26;90.03;100328.56;1809686;78;21408;-66
2020/12/19 09:45:14;;;;;;;;;;;;;;;1.36;90.05;100332.86;1812525;78;20973;-67
2020/12/19 09:47:45;;;;;;;44.73;26.68;;;;;;;1.44;89.99;100331.16;1801070;78;20215;-66
2020/12/19 09:51:00;;;;;;;49.67;27.85;;;;;;;1.60;90.08;100325.98;1872772;75;22253;-66
2020/12/19 09:53:40;;;;;;;;;;;;;;;;;;;;;
2020/12/19 09:56:21;;;;;;;52.53;27.85;;;;;;;1.76;90.05;100314.80;1810573;77;23026;-66
2020/12/19 09:58:54;;;;;;;44.67;27.35;;;;;;;1.78;90.03;100319.53;1760610;80;21088;-65
2020/12/19 10:01:30;;;;;;;46.13;26.85;;;;;;;1.89;90.01;100315.21;1830156;75;22504;-66
2020/12/19 10:03:58;;;;;;;43.17;24.85;;;;;;;1.90;89.98;100315.63;1805202;77;21066;-65
2020/12/19 10:09:20;;;;;;;39.75;24.87;;;;;;;2.06;89.87;100305.30;1765437;79;24666;-66
2020/12/19 10:11:48;;;;;;;34.95;22.75;;;;;;;2.04;89.84;100312.16;1738438;81;21011;-66
2020/12/19 10:14:15;;;;;;;43.75;25.12;;;;;;;2.11;89.90;100300.55;1731092;81;21267;-67
2020/12/19 10:16:43;;;;;;;57.03;37.67;;;;;;;2.15;89.86;100305.25;1722889;81;21462;-66
2020/12/19 10:19:12;;;;;;;45.38;28.83;;;;;;;2.18;89.86;100307.81;1737096;81;21093;-66
2020/12/19 10:21:40;;;;;;;40.73;26.10;;;;;;;2.20;89.80;100302.23;1731491;81;21109;-67
2020/12/19 10:24:07;;;;;;;42.40;26.10;;;;;;;2.23;89.83;100306.09;1732623;81;21088;-66
2020/12/19 10:26:35;;;;;;;32.95;22.32;;;;;;;2.28;89.93;100298.35;1735704;81;22366;-66
2020/12/19 10:29:02;;;;;;;33.02;22.70;;;;;;;2.32;89.90;100300.89;1732528;80;21049;-66
2020/12/19 10:31:33;;;;;;;37.75;22.98;;;;;;;2.39;89.95;100305.16;1724445;81;21011;-66
2020/12/19 10:34:02;;;;;;;34.75;22.82;;;;;;;2.44;89.92;100290.54;1736648;81;21905;-67
2020/12/19 10:36:29;;;;;;;46.28;30.48;;;;;;;2.51;89.94;100294.37;1739403;81;20997;-66
2020/12/19 10:38:57;;;;;;;79.97;48.68;;;;;;;2.58;89.91;100289.62;1733031;81;21240;-66
2020/12/19 10:41:30;;;;;;;118.85;76.67;;;;;;;2.62;89.74;100301.61;1736562;81;21031;-65
2020/12/19 10:44:01;;;;;;;110.72;71.28;;;;;;;2.65;89.79;100292.13;1735283;81;21137;-66
2020/12/19 10:46:30;;;;;;;198.57;126.38;;;;;;;2.66;89.64;100290.40;1736923;81;21098;-66
2020/12/19 10:48:58;;;;;;;216.85;140.65;;;;;;;2.66;89.64;100300.71;1737558;81;21154;-66
2020/12/19 10:51:31;;;;;;;100.22;71.70;;;;;;;2.66;89.60;100300.71;1736041;81;21204;-66
2020/12/19 10:54:04;;;;;;;90.07;60.12;;;;;;;2.62;89.57;100301.61;1742703;81;21227;-66
2020/12/19 10:56:33;;;;;;;153.82;104.40;;;;;;;2.63;89.63;100304.60;1744799;81;21159;-66
2020/12/19 10:59:01;;;;;;;79.03;47.80;;;;;;;2.67;89.67;100297.29;1725705;81;21190;-66
2020/12/19 11:01:31;;;;;;;88.80;56.53;;;;;;;2.69;89.66;100301.58;1729638;81;21222;-65
2020/12/19 11:04:00;;;;;;;59.40;37.98;;;;;;;2.72;89.61;100303.28;1727924;81;21213;-65
2020/12/19 11:06:28;;;;;;;44.25;26.57;;;;;;;2.77;89.69;100301.51;1724774;81;21137;-66
2020/12/19 11:08:57;;;;;;;38.15;24.57;;;;;;;2.79;89.57;100293.34;1732021;81;21196;-65
2020/12/19 11:11:24;;;;;;;37.60;24.32;;;;;;;2.79;89.52;100292.05;1731185;81;21196;-66
2020/12/19 11:14:14;;;;;;;36.90;23.05;;;;;;;2.81;89.56;100285.16;1735308;81;21212;-65
2020/12/19 11:16:43;;;;;;;41.65;24.20;;;;;;;2.83;89.52;100283.44;1725685;81;21274;-66
2020/12/19 11:19:12;;;;;;;35.40;22.85;;;;;;;2.84;89.46;100281.27;1726937;81;21022;-66
2020/12/19 11:21:46;;;;;;;38.63;24.00;;;;;;;2.83;89.48;100286.02;1724522;81;21174;-65
2020/12/19 11:24:16;;;;;;;42.78;25.37;;;;;;;2.82;89.40;100283.00;1729804;81;21590;-65
2020/12/19 11:26:46;;;;;;;43.52;24.85;;;;;;;2.84;89.52;100276.11;1721276;81;21169;-66
2020/12/19 11:29:15;;;;;;;41.00;22.87;;;;;;;2.84;89.45;100270.95;1724083;81;22112;-65
2020/12/19 11:31:48;;;;;;;37.70;23.77;;;;;;;2.86;89.46;100264.07;1730176;81;21105;-65
2020/12/19 11:34:17;;;;;;;38.92;23.87;;;;;;;2.87;89.39;100263.63;1732146;81;21184;-65
2020/12/19 11:36:45;;;;;;;38.50;23.85;;;;;;;2.86;89.42;100266.65;1722853;81;21230;-66
2020/12/19 11:39:14;;;;;;;36.65;24.60;;;;;;;2.88;89.44;100262.31;1719013;81;21318;-65
2020/12/19 11:41:44;;;;;;;34.88;23.38;;;;;;;2.93;89.51;100269.18;1737841;81;21207;-64
2020/12/19 11:44:12;;;;;;;34.95;24.70;;;;;;;2.98;89.56;100269.57;1731267;81;21603;-65
2020/12/19 11:46:42;;;;;;;40.43;28.02;;;;;;;3.06;89.54;100266.94;1725121;81;21054;-65
2020/12/19 11:49:10;;;;;;;37.13;23.52;;;;;;;3.06;89.33;100254.04;1722306;81;21085;-65
2020/12/19 11:51:38;;;;;;;34.50;22.93;;;;;;;3.04;89.30;100258.34;1720927;81;21173;-65